Time;durP1;ratioP1;P1;durP2;ratioP2;P2;SDS_P1;SDS_P2;PMS_P1;PMS_P2;Temp;Humidity;BMP_temperature;BMP_pressure;BME280_temperature;BME280_humidity;BME280_pressure;Samples;Min_cycle;Max_cycle;Signal;HPM_P1;HPM_P2
2022/11/04 00:01:18;;;;;;;;;;;11.70;97.80;;;;;;5039130;28;20383;-76
2022/11/04 00:03:45;;;;;;;;;;;11.70;97.80;;;;;;5037669;28;20003;-76
2022/11/04 00:06:11;;;;;;;;;;;11.60;97.80;;;;;;5040724;28;19984;-77
2022/11/04 00:08:38;;;;;;;;;;;11.70;97.80;;;;;;5041783;28;19975;-76
2022/11/04 00:13:49;;;;;;;;;;;11.60;97.70;;;;;;5043825;28;20113;-76
2022/11/04 00:19:01;;;;;;;;;;;11.60;97.70;;;;;;5045471;28;20036;-75
2022/11/04 00:29:41;;;;;;;;;;;11.60;97.80;;;;;;5041194;28;20514;-76
2022/11/04 00:34:53;;;;;;;;;;;11.60;97.80;;;;;;5040915;28;20065;-75
2022/11/04 00:37:20;;;;;;;;;;;11.60;97.70;;;;;;5044811;28;20335;-75
2022/11/04 00:39:46;;;;;;;;;;;11.60;97.70;;;;;;5044351;28;19994;-75
2022/11/04 00:42:13;;;;;;;;;;;11.60;97.70;;;;;;5045144;28;19983;-76
2022/11/04 00:44:39;;;;;;;;;;;11.60;97.70;;;;;;5044537;28;20371;-76
2022/11/04 00:47:06;;;;;;;;;;;11.60;97.70;;;;;;5038244;28;20007;-76
2022/11/04 00:49:34;;;;;;;;;;;11.60;97.70;;;;;;5044546;28;19976;-75
2022/11/04 00:52:00;;;;;;;;;;;11.60;97.70;;;;;;5044524;28;19976;-76
2022/11/04 00:54:27;;;;;;;;;;;11.60;97.80;;;;;;5042573;28;19992;-75
2022/11/04 00:56:54;;;;;;;;;;;11.60;97.70;;;;;;5043116;28;19996;-76
2022/11/04 00:59:20;;;;;;;;;;;11.60;97.70;;;;;;5042327;28;19987;-75
2022/11/04 01:01:47;;;;;;;;;;;11.60;97.70;;;;;;5042753;28;19996;-75
2022/11/04 01:04:13;;;;;;;;;;;11.50;97.60;;;;;;5044281;28;19992;-77
2022/11/04 01:06:41;;;;;;;;;;;11.60;97.60;;;;;;5037395;28;19986;-76
2022/11/04 01:09:10;;;;;;;;;;;11.50;97.60;;;;;;5039075;28;20231;-76
2022/11/04 01:11:37;;;;;;;;;;;11.50;97.60;;;;;;5041931;28;19998;-75
2022/11/04 01:14:03;;;;;;;;;;;11.50;97.60;;;;;;5043565;28;20002;-74
2022/11/04 01:16:30;;;;;;;;;;;11.50;97.50;;;;;;5040569;28;19991;-76
2022/11/04 01:18:56;;;;;;;;;;;11.50;97.50;;;;;;5042522;28;20392;-76
2022/11/04 01:21:23;;;;;;;;;;;11.50;97.50;;;;;;5039385;28;20699;-76
2022/11/04 01:23:51;;;;;;;;;;;11.50;97.50;;;;;;5041786;28;19996;-76
2022/11/04 01:26:19;;;;;;;;;;;11.50;97.50;;;;;;5039494;28;19983;-76
2022/11/04 01:28:46;;;;;;;;;;;11.50;97.50;;;;;;5037526;28;19988;-76
2022/11/04 01:31:13;;;;;;;;;;;11.50;97.50;;;;;;5039641;28;19992;-76
2022/11/04 01:33:40;;;;;;;;;;;11.50;97.50;;;;;;5041224;28;19998;-76
2022/11/04 01:36:07;;;;;;;;;;;11.50;97.40;;;;;;5046229;28;20067;-76
2022/11/04 01:38:34;;;;;;;;;;;11.50;97.30;;;;;;5040294;28;19991;-77
2022/11/04 01:41:03;;;;;;;;;;;11.50;97.30;;;;;;5044571;28;20038;-77
2022/11/04 01:43:43;;;;;;;;;;;11.50;97.20;;;;;;5043999;28;20470;-77
2022/11/04 01:46:12;;;;;;;;;;;11.50;97.20;;;;;;5038815;28;20098;-77
2022/11/04 01:48:38;;;;;;;;;;;11.50;97.20;;;;;;5042806;28;20197;-77
2022/11/04 01:51:06;;;;;;;;;;;11.50;97.20;;;;;;5043216;28;19983;-76
2022/11/04 01:53:33;;;;;;;;;;;11.50;97.20;;;;;;5035400;28;20478;-75
2022/11/04 01:56:02;;;;;;;;;;;11.50;97.20;;;;;;5036226;28;19976;-77
2022/11/04 01:58:32;;;;;;;;;;;11.50;97.20;;;;;;5037496;28;20035;-78
2022/11/04 02:00:58;;;;;;;;;;;11.40;97.20;;;;;;5037778;28;19992;-77
2022/11/04 02:03:27;;;;;;;;;;;11.50;97.20;;;;;;5040578;28;20521;-77
2022/11/04 02:05:54;;;;;;;;;;;11.50;97.10;;;;;;5038468;28;20387;-77
2022/11/04 02:08:21;;;;;;;;;;;11.50;97.10;;;;;;5043375;28;20440;-77
2022/11/04 02:10:48;;;;;;;;;;;11.40;97.10;;;;;;5038339;28;19976;-77
2022/11/04 02:13:14;;;;;;;;;;;11.40;97.10;;;;;;5040304;28;20003;-78
2022/11/04 02:15:45;;;;;;;;;;;11.40;97.10;;;;;;5040561;28;19987;-78
2022/11/04 02:18:28;;;;;;;;;;;11.40;97.10;;;;;;5040206;28;19993;-76
2022/11/04 02:21:19;;;;;;;;;;;11.40;97.00;;;;;;5042835;28;19983;-76
2022/11/04 02:24:05;;;;;;;;;;;11.40;97.00;;;;;;5035515;28;20003;-77
2022/11/04 02:26:51;;;;;;;;;;;11.40;97.00;;;;;;5034887;28;19976;-77
2022/11/04 02:29:30;;;;;;;;;;;11.40;97.00;;;;;;5034885;28;20223;-76
2022/11/04 02:32:03;;;;;;;;;;;11.40;97.00;;;;;;5039712;28;20045;-77
2022/11/04 02:34:33;;;;;;;;;;;11.40;97.00;;;;;;5039889;28;20014;-77
2022/11/04 02:37:06;;;;;;;;;;;11.30;96.90;;;;;;5043692;28;19999;-77
2022/11/04 02:39:37;;;;;;;;;;;11.40;96.90;;;;;;5044722;28;19983;-77
2022/11/04 02:42:08;;;;;;;;;;;11.40;96.90;;;;;;5041495;28;19987;-78
2022/11/04 02:44:38;;;;;;;;;;;11.30;96.80;;;;;;5035012;28;19992;-77
2022/11/04 02:47:06;;;;;;;;;;;11.40;96.90;;;;;;5035721;28;20003;-77
2022/11/04 02:49:34;;;;;;;;;;;11.30;96.80;;;;;;5035883;28;20636;-77
2022/11/04 02:52:03;;;;;;;;;;;11.30;96.80;;;;;;5036421;28;19980;-76
2022/11/04 02:54:31;;;;;;;;;;;11.30;96.70;;;;;;5040994;28;19995;-77
2022/11/04 02:56:59;;;;;;;;;;;11.30;96.80;;;;;;5041961;28;20057;-76
2022/11/04 02:59:29;;;;;;;;;;;11.30;96.80;;;;;;5041746;28;19976;-77
2022/11/04 03:01:58;;;;;;;;;;;11.30;96.70;;;;;;5044340;28;20003;-77
2022/11/04 03:04:28;;;;;;;;;;;11.30;96.80;;;;;;5044323;28;20001;-77
2022/11/04 03:06:56;;;;;;;;;;;11.30;96.80;;;;;;5037763;28;21789;-77
2022/11/04 03:09:23;;;;;;;;;;;11.20;96.70;;;;;;5038621;28;19980;-78
2022/11/04 03:11:52;;;;;;;;;;;11.20;96.70;;;;;;5043571;28;20371;-77
2022/11/04 03:14:20;;;;;;;;;;;11.20;96.70;;;;;;5045479;28;19999;-77
2022/11/04 03:16:48;;;;;;;;;;;11.20;96.70;;;;;;5041485;28;19996;-77
2022/11/04 03:19:16;;;;;;;;;;;11.20;96.70;;;;;;5041104;28;19976;-77
2022/11/04 03:21:47;;;;;;;;;;;11.20;96.60;;;;;;5044027;28;19990;-78
2022/11/04 03:24:13;;;;;;;;;;;11.20;96.70;;;;;;5039757;28;19995;-77
2022/11/04 03:26:43;;;;;;;;;;;11.20;96.70;;;;;;5038121;28;20477;-77
2022/11/04 03:29:15;;;;;;;;;;;11.20;96.70;;;;;;5045489;28;19991;-78
2022/11/04 03:31:44;;;;;;;;;;;11.20;96.80;;;;;;5042792;28;20687;-77
2022/11/04 03:34:11;;;;;;;;;;;11.20;96.80;;;;;;5043543;28;19997;-78
2022/11/04 03:36:39;;;;;;;;;;;11.20;96.80;;;;;;5040873;28;19976;-76
2022/11/04 03:39:05;;;;;;;;;;;11.10;96.80;;;;;;5036813;28;20530;-76
2022/11/04 03:41:34;;;;;;;;;;;11.20;96.80;;;;;;5041134;28;20652;-77
2022/11/04 03:44:00;;;;;;;;;;;11.10;96.80;;;;;;5045143;28;19999;-78
2022/11/04 03:46:27;;;;;;;;;;;11.10;96.80;;;;;;5040321;28;19999;-77
2022/11/04 03:48:54;;;;;;;;;;;11.10;96.80;;;;;;5040526;28;19980;-77
2022/11/04 03:51:21;;;;;;;;;;;11.10;96.70;;;;;;5045685;28;19980;-78
2022/11/04 03:53:49;;;;;;;;;;;11.10;96.70;;;;;;5038204;28;19995;-77
2022/11/04 03:56:35;;;;;;;;;;;11.10;96.80;;;;;;5042667;28;19979;-77
2022/11/04 03:59:07;;;;;;;;;;;11.00;96.80;;;;;;5040385;28;19992;-77
2022/11/04 04:01:39;;;;;;;;;;;11.00;96.80;;;;;;5040335;28;19988;-77
2022/11/04 04:04:12;;;;;;;;;;;11.00;96.80;;;;;;5044782;28;20030;-77
2022/11/04 04:06:39;;;;;;;;;;;11.00;96.80;;;;;;5043829;28;19979;-77
2022/11/04 04:09:12;;;;;;;;;;;11.00;96.80;;;;;;5043312;28;19976;-77
2022/11/04 04:11:41;;;;;;;;;;;11.00;96.80;;;;;;5039140;28;19976;-77
2022/11/04 04:14:37;;;;;;;;;;;11.00;96.90;;;;;;5042753;28;19992;-77
2022/11/04 04:17:00;;;;;;;;;;;11.00;96.90;;;;;;5041248;28;20200;-78
2022/11/04 04:19:27;;;;;;;;;;;11.00;96.90;;;;;;5040944;28;19991;-77
2022/11/04 04:21:56;;;;;;;;;;;11.00;96.90;;;;;;5042612;28;19976;-78
2022/11/04 04:27:31;;;;;;;;;;;11.00;97.00;;;;;;5020954;28;19987;-77
2022/11/04 04:29:59;;;;;;;;;;;10.90;97.00;;;;;;5044426;28;19979;-78
2022/11/04 04:32:27;;;;;;;;;;;10.90;97.00;;;;;;5037669;28;19992;-78
2022/11/04 04:35:40;;;;;;;;;;;10.90;97.00;;;;;;5041604;28;19998;-77
2022/11/04 04:37:41;;;;;;;;;;;10.90;97.00;;;;;;5040756;28;19987;-78
2022/11/04 04:45:41;;;;;;;;;;;10.90;97.10;;;;;;5039256;28;19998;-77
2022/11/04 04:48:09;;;;;;;;;;;10.80;97.10;;;;;;5043496;28;19980;-77
2022/11/04 04:50:37;;;;;;;;;;;10.90;97.10;;;;;;5040603;28;19979;-77
2022/11/04 04:53:03;;;;;;;;;;;10.90;97.20;;;;;;5038111;28;19991;-77
2022/11/04 04:55:32;;;;;;;;;;;10.80;97.20;;;;;;5039380;28;20084;-77
2022/11/04 04:57:58;;;;;;;;;;;10.80;97.20;;;;;;5031658;28;20002;-77
2022/11/04 05:00:25;;;;;;;;;;;10.80;97.20;;;;;;5045679;28;19983;-78
2022/11/04 05:02:52;;;;;;;;;;;10.80;97.20;;;;;;5036784;28;19980;-77
2022/11/04 05:05:19;;;;;;;;;;;10.80;97.20;;;;;;5044270;28;19983;-77
2022/11/04 05:07:46;;;;;;;;;;;10.80;97.30;;;;;;5039131;28;20084;-78
2022/11/04 05:10:14;;;;;;;;;;;10.80;97.30;;;;;;5040889;28;19982;-77
2022/11/04 05:15:26;;;;;;;;;;;10.80;97.30;;;;;;5038580;28;20046;-77
2022/11/04 05:17:53;;;;;;;;;;;10.70;97.30;;;;;;5036821;28;19996;-77
2022/11/04 05:20:20;;;;;;;;;;;10.70;97.30;;;;;;5040410;28;19975;-77
2022/11/04 05:22:46;;;;;;;;;;;10.70;97.30;;;;;;5041153;28;19979;-76
2022/11/04 05:25:13;;;;;;;;;;;10.70;97.30;;;;;;5041265;28;19980;-77
2022/11/04 05:27:39;;;;;;;;;;;10.70;97.30;;;;;;5035667;28;19976;-77
2022/11/04 05:30:08;;;;;;;;;;;10.70;97.30;;;;;;5035176;28;19975;-77
2022/11/04 05:32:34;;;;;;;;;;;10.60;97.30;;;;;;5035095;28;19976;-78
2022/11/04 05:35:01;;;;;;;;;;;10.60;97.30;;;;;;5037063;28;19996;-77
2022/11/04 05:37:28;;;;;;;;;;;10.60;97.30;;;;;;5033578;28;20462;-77
2022/11/04 05:39:54;;;;;;;;;;;10.60;97.30;;;;;;5038107;28;19987;-77
2022/11/04 05:42:21;;;;;;;;;;;10.60;97.40;;;;;;5034675;28;19975;-77
2022/11/04 05:44:47;;;;;;;;;;;10.60;97.40;;;;;;5038984;28;20049;-78
2022/11/04 05:47:16;;;;;;;;;;;10.60;97.40;;;;;;5035729;28;19996;-77
2022/11/04 05:49:43;;;;;;;;;;;10.60;97.40;;;;;;5043013;28;19979;-78
2022/11/04 05:52:09;;;;;;;;;;;10.60;97.40;;;;;;5039330;28;19976;-77
2022/11/04 05:54:37;;;;;;;;;;;10.50;97.40;;;;;;5035287;28;20003;-77
2022/11/04 05:57:03;;;;;;;;;;;10.60;97.40;;;;;;5036346;28;19976;-77
2022/11/04 05:59:30;;;;;;;;;;;10.50;97.40;;;;;;5037077;28;20003;-77
2022/11/04 06:01:56;;;;;;;;;;;10.50;97.40;;;;;;5039011;28;19995;-77
2022/11/04 06:04:24;;;;;;;;;;;10.50;97.50;;;;;;5037724;28;19998;-77
2022/11/04 06:06:51;;;;;;;;;;;10.50;97.50;;;;;;5041603;28;20003;-77
2022/11/04 06:09:17;;;;;;;;;;;10.50;97.50;;;;;;5039484;28;19979;-77
2022/11/04 06:11:44;;;;;;;;;;;10.50;97.50;;;;;;5039089;28;19980;-77
2022/11/04 06:14:10;;;;;;;;;;;10.40;97.50;;;;;;5040729;28;20006;-76
2022/11/04 06:16:37;;;;;;;;;;;10.40;97.50;;;;;;5034664;28;19988;-77
2022/11/04 06:19:04;;;;;;;;;;;10.50;97.50;;;;;;5039344;28;20091;-76
2022/11/04 06:21:32;;;;;;;;;;;10.40;97.50;;;;;;5041626;28;19976;-77
2022/11/04 06:23:59;;;;;;;;;;;10.40;97.50;;;;;;5043058;28;19991;-78
2022/11/04 06:26:26;;;;;;;;;;;10.40;97.50;;;;;;5037638;28;20466;-77
2022/11/04 06:28:53;;;;;;;;;;;10.40;97.50;;;;;;5041020;28;20357;-78
2022/11/04 06:31:20;;;;;;;;;;;10.30;97.50;;;;;;5040512;28;19999;-77
2022/11/04 06:33:47;;;;;;;;;;;10.30;97.50;;;;;;5045547;28;20019;-78
2022/11/04 06:36:14;;;;;;;;;;;10.40;97.50;;;;;;5045717;28;20422;-77
2022/11/04 06:38:42;;;;;;;;;;;10.30;97.50;;;;;;5045338;28;19998;-76
2022/11/04 06:41:11;;;;;;;;;;;10.30;97.50;;;;;;5040134;28;20390;-75
2022/11/04 06:43:38;;;;;;;;;;;10.20;96.20;;;;;;5038019;28;19999;-76
2022/11/04 06:46:04;;;;;;;;;;;10.10;96.40;;;;;;5042323;28;19993;-75
2022/11/04 06:48:31;;;;;;;;;;;10.10;96.70;;;;;;5043339;28;19980;-74
2022/11/04 06:50:58;;;;;;;;;;;10.10;96.80;;;;;;5045939;28;19976;-75
2022/11/04 06:53:24;;;;;;;;;;;10.00;96.90;;;;;;5040203;28;20061;-74
2022/11/04 06:55:52;;;;;;;;;;;10.10;97.00;;;;;;5046341;28;19979;-75
2022/11/04 06:58:19;;;;;;;;;;;10.10;97.10;;;;;;5037884;28;20483;-75
2022/11/04 07:00:50;;;;;;;;;;;10.10;97.10;;;;;;5037686;28;20006;-74
2022/11/04 07:03:16;;;;;;;;;;;10.10;97.10;;;;;;5035942;28;20855;-75
2022/11/04 07:05:43;;;;;;;;;;;10.10;97.10;;;;;;5040373;28;20367;-74
2022/11/04 07:08:09;;;;;;;;;;;10.10;97.10;;;;;;5039959;28;20351;-76
2022/11/04 07:10:36;;;;;;;;;;;10.10;97.10;;;;;;5034417;28;20778;-76
2022/11/04 07:13:04;;;;;;;;;;;10.10;97.10;;;;;;5041793;28;20477;-75
2022/11/04 07:15:31;;;;;;;;;;;10.10;97.10;;;;;;5038537;28;19996;-76
2022/11/04 07:17:58;;;;;;;;;;;10.10;97.10;;;;;;5034916;28;20798;-74
2022/11/04 07:20:25;;;;;;;;;;;10.10;97.10;;;;;;5035053;28;19980;-74
2022/11/04 07:22:53;;;;;;;;;;;10.10;97.10;;;;;;5038285;28;19983;-74
2022/11/04 07:25:20;;;;;;;;;;;10.10;97.10;;;;;;5039526;28;19991;-73
2022/11/04 07:27:47;;;;;;;;;;;10.10;97.10;;;;;;5038395;28;20435;-74
2022/11/04 07:30:15;;;;;;;;;;;10.10;97.10;;;;;;5026218;28;19983;-74
2022/11/04 07:32:41;;;;;;;;;;;10.10;97.10;;;;;;5026059;28;19991;-74
2022/11/04 07:35:09;;;;;;;;;;;10.10;97.10;;;;;;5030350;28;19988;-74
2022/11/04 07:37:35;;;;;;;;;;;10.10;97.20;;;;;;5029839;28;19980;-74
2022/11/04 07:40:03;;;;;;;;;;;10.10;97.20;;;;;;5029252;28;19991;-73
2022/11/04 07:42:30;;;;;;;;;;;10.10;97.20;;;;;;5032155;28;20455;-75
2022/11/04 07:44:56;;;;;;;;;;;10.10;97.10;;;;;;5029601;28;19995;-74
2022/11/04 07:47:24;;;;;;;;;;;10.10;97.20;;;;;;5031483;28;19932;-73
2022/11/04 07:49:51;;;;;;;;;;;10.00;97.10;;;;;;5033303;28;19928;-74
2022/11/04 07:52:17;;;;;;;;;;;10.10;97.20;;;;;;5034396;28;19928;-72
2022/11/04 07:54:44;;;;;;;;;;;10.10;97.20;;;;;;5038724;28;19928;-74
2022/11/04 07:57:10;;;;;;;;;;;10.00;97.10;;;;;;5038750;28;19936;-74
2022/11/04 07:59:37;;;;;;;;;;;10.00;97.10;;;;;;5037356;28;19940;-74
2022/11/04 08:02:04;;;;;;;;;;;10.00;97.10;;;;;;5036363;28;19929;-73
2022/11/04 08:04:32;;;;;;;;;;;10.00;97.10;;;;;;5036789;28;19935;-74
2022/11/04 08:06:58;;;;;;;;;;;10.00;97.10;;;;;;5036288;28;19936;-73
2022/11/04 08:09:25;;;;;;;;;;;10.00;97.10;;;;;;5039151;28;20324;-74
2022/11/04 08:11:52;;;;;;;;;;;10.00;97.10;;;;;;5039234;28;20602;-74
2022/11/04 08:14:19;;;;;;;;;;;10.00;97.10;;;;;;5037611;28;19987;-74
2022/11/04 08:16:45;;;;;;;;;;;10.00;97.10;;;;;;5037062;28;19996;-74
2022/11/04 08:19:12;;;;;;;;;;;10.00;97.10;;;;;;5036764;28;20504;-74
2022/11/04 08:21:40;;;;;;;;;;;10.00;97.10;;;;;;5033436;28;20496;-75
2022/11/04 08:24:06;;;;;;;;;;;10.00;97.10;;;;;;5036864;28;20003;-75
2022/11/04 08:26:33;;;;;;;;;;;10.00;97.10;;;;;;5037723;28;19983;-75
2022/11/04 08:29:01;;;;;;;;;;;10.10;97.10;;;;;;5035957;28;19980;-74
2022/11/04 08:31:28;;;;;;;;;;;10.10;97.10;;;;;;5033320;28;20502;-75
2022/11/04 08:33:55;;;;;;;;;;;10.10;97.10;;;;;;5033372;28;19998;-74
2022/11/04 08:36:23;;;;;;;;;;;10.10;97.00;;;;;;5037454;28;19976;-75
2022/11/04 08:38:51;;;;;;;;;;;10.10;97.00;;;;;;5036915;28;20002;-73
2022/11/04 08:41:19;;;;;;;;;;;10.00;97.00;;;;;;5036474;28;20113;-75
2022/11/04 08:43:46;;;;;;;;;;;10.00;97.00;;;;;;5040185;28;19988;-75
2022/11/04 08:46:13;;;;;;;;;;;10.10;97.00;;;;;;5037399;28;19992;-75
2022/11/04 08:48:42;;;;;;;;;;;10.10;97.00;;;;;;5034898;28;20063;-75
2022/11/04 08:51:11;;;;;;;;;;;10.10;96.90;;;;;;5037319;28;20835;-75
2022/11/04 08:53:38;;;;;;;;;;;10.10;96.90;;;;;;5039536;28;19996;-75
2022/11/04 08:56:10;;;;;;;;;;;10.10;96.90;;;;;;5040394;28;20084;-74
2022/11/04 08:58:37;;;;;;;;;;;10.10;96.90;;;;;;5036918;28;19976;-75
2022/11/04 09:01:03;;;;;;;;;;;10.10;96.90;;;;;;5040210;28;20499;-75
2022/11/04 09:03:31;;;;;;;;;;;10.20;96.80;;;;;;5034984;28;20014;-76
2022/11/04 09:05:58;;;;;;;;;;;10.20;96.80;;;;;;5041254;28;20007;-75
2022/11/04 09:08:24;;;;;;;;;;;10.20;96.80;;;;;;5043127;28;20074;-75
2022/11/04 09:10:51;;;;;;;;;;;10.20;96.70;;;;;;5037309;28;20383;-75
2022/11/04 09:13:19;;;;;;;;;;;10.20;96.70;;;;;;5038124;28;20014;-75
2022/11/04 09:15:47;;;;;;;;;;;10.20;96.70;;;;;;5039488;28;19995;-75
2022/11/04 09:18:14;;;;;;;;;;;10.20;96.70;;;;;;5032355;28;20454;-76
2022/11/04 09:20:41;;;;;;;;;;;10.20;96.60;;;;;;5027291;28;19998;-76
2022/11/04 09:23:08;;;;;;;;;;;10.20;96.60;;;;;;5029776;28;19996;-77
2022/11/04 09:25:34;;;;;;;;;;;10.20;96.60;;;;;;5026377;28;19976;-76
2022/11/04 09:28:01;;;;;;;;;;;10.20;96.50;;;;;;5033067;28;19987;-77
2022/11/04 09:30:29;;;;;;;;;;;10.30;96.50;;;;;;5031664;28;20532;-76
2022/11/04 09:32:55;;;;;;;;;;;10.30;96.50;;;;;;5031385;28;19976;-76
2022/11/04 09:35:22;;;;;;;;;;;10.30;96.50;;;;;;5039122;28;19976;-76
2022/11/04 09:37:49;;;;;;;;;;;10.30;96.40;;;;;;5041065;28;19991;-76
2022/11/04 09:40:17;;;;;;;;;;;10.40;96.40;;;;;;5036159;28;19996;-76
2022/11/04 09:42:49;;;;;;;;;;;10.40;96.40;;;;;;5040106;28;19983;-76
2022/11/04 09:45:17;;;;;;;;;;;10.40;96.30;;;;;;5032639;28;19983;-76
2022/11/04 09:47:47;;;;;;;;;;;10.40;96.20;;;;;;5036639;28;19980;-76
2022/11/04 09:50:18;;;;;;;;;;;10.50;96.20;;;;;;5036127;28;19982;-76
2022/11/04 09:52:55;;;;;;;;;;;10.50;96.10;;;;;;5037925;28;19980;-76
2022/11/04 09:55:23;;;;;;;;;;;10.50;96.00;;;;;;5037579;28;20442;-76
2022/11/04 09:57:53;;;;;;;;;;;10.60;96.00;;;;;;5030082;28;19983;-76
2022/11/04 10:00:19;;;;;;;;;;;10.60;95.90;;;;;;5031692;28;19999;-76
2022/11/04 10:02:51;;;;;;;;;;;10.60;95.90;;;;;;5041384;28;20023;-76
2022/11/04 10:05:32;;;;;;;;;;;10.60;95.80;;;;;;5042122;28;19987;-76
2022/11/04 10:08:04;;;;;;;;;;;10.60;95.80;;;;;;5041815;28;20404;-76
2022/11/04 10:10:35;;;;;;;;;;;10.60;95.80;;;;;;5039378;28;19976;-76
2022/11/04 10:13:07;;;;;;;;;;;10.70;95.80;;;;;;5044101;28;20002;-76
2022/11/04 10:15:39;;;;;;;;;;;10.70;95.80;;;;;;5034737;28;20485;-76
2022/11/04 10:18:15;;;;;;;;;;;10.70;95.70;;;;;;5041503;28;20068;-76
2022/11/04 10:20:47;;;;;;;;;;;10.70;95.70;;;;;;5039452;28;20006;-76
2022/11/04 10:23:19;;;;;;;;;;;10.70;95.60;;;;;;5038956;28;19991;-76
2022/11/04 10:25:48;;;;;;;;;;;10.80;95.60;;;;;;5039590;28;19987;-76
2022/11/04 10:28:15;;;;;;;;;;;10.70;95.60;;;;;;5046953;28;19979;-76
2022/11/04 10:30:42;;;;;;;;;;;10.80;95.60;;;;;;5043283;28;20003;-75
2022/11/04 10:33:13;;;;;;;;;;;10.80;95.60;;;;;;5044343;28;20475;-76
2022/11/04 10:35:41;;;;;;;;;;;10.80;95.50;;;;;;5041782;28;19976;-75
2022/11/04 10:38:14;;;;;;;;;;;10.80;95.50;;;;;;5043969;28;19987;-75
2022/11/04 10:40:41;;;;;;;;;;;10.80;95.40;;;;;;5043470;28;20375;-75
2022/11/04 10:43:09;;;;;;;;;;;10.90;95.40;;;;;;5045060;28;20000;-76
2022/11/04 10:45:39;;;;;;;;;;;10.90;95.40;;;;;;5040081;28;19996;-76
2022/11/04 10:48:08;;;;;;;;;;;10.90;95.30;;;;;;5036274;28;19991;-76
2022/11/04 10:50:37;;;;;;;;;;;10.90;95.30;;;;;;5034552;28;19980;-76
2022/11/04 10:53:14;;;;;;;;;;;11.00;95.30;;;;;;5032389;28;20714;-75
2022/11/04 10:55:45;;;;;;;;;;;11.00;95.20;;;;;;5026572;28;19999;-76
2022/11/04 10:58:14;;;;;;;;;;;11.00;95.50;;;;;;5032719;28;19975;-77
2022/11/04 11:00:41;;;;;;;;;;;11.00;95.50;;;;;;5027272;28;20003;-76
2022/11/04 11:03:22;;;;;;;;;;;11.00;95.10;;;;;;5038118;28;19980;-76
2022/11/04 11:05:51;;;;;;;;;;;11.00;95.10;;;;;;5037567;28;19980;-76
2022/11/04 11:08:27;;;;;;;;;;;11.00;95.10;;;;;;5035559;28;19975;-76
2022/11/04 11:10:55;;;;;;;;;;;11.10;95.10;;;;;;5034373;28;19975;-76
2022/11/04 11:13:25;;;;;;;;;;;11.00;95.00;;;;;;5035929;28;19992;-76
2022/11/04 11:16:03;;;;;;;;;;;11.10;95.10;;;;;;5040191;28;20110;-76
2022/11/04 11:18:30;;;;;;;;;;;11.10;95.10;;;;;;5035762;28;19972;-76
2022/11/04 11:21:06;;;;;;;;;;;11.10;95.10;;;;;;5036795;28;20472;-76
2022/11/04 11:23:37;;;;;;;;;;;11.10;95.00;;;;;;5033909;28;20030;-76
2022/11/04 11:26:06;;;;;;;;;;;11.10;95.00;;;;;;5037440;28;19976;-76
2022/11/04 11:28:36;;;;;;;;;;;11.20;95.00;;;;;;5042734;28;19984;-75
2022/11/04 11:31:07;;;;;;;;;;;11.20;94.90;;;;;;5036872;28;19992;-76
2022/11/04 11:33:35;;;;;;;;;;;11.20;95.00;;;;;;5039707;28;20011;-76
2022/11/04 11:36:05;;;;;;;;;;;11.30;94.80;;;;;;5040319;28;19983;-76
2022/11/04 11:38:34;;;;;;;;;;;11.30;94.70;;;;;;5033725;28;20271;-75
2022/11/04 11:41:05;;;;;;;;;;;11.40;94.70;;;;;;5036548;28;20090;-74
2022/11/04 11:43:33;;;;;;;;;;;11.40;94.50;;;;;;5031666;28;19992;-76
2022/11/04 11:46:00;;;;;;;;;;;11.50;94.40;;;;;;5033550;28;19992;-77
2022/11/04 11:48:28;;;;;;;;;;;11.60;94.40;;;;;;5036579;28;19991;-75
2022/11/04 11:50:57;;;;;;;;;;;11.60;94.30;;;;;;5036759;28;19972;-74
2022/11/04 11:53:25;;;;;;;;;;;11.70;94.30;;;;;;5028362;28;20138;-75
2022/11/04 11:55:56;;;;;;;;;;;11.80;94.00;;;;;;5039011;28;19976;-76
2022/11/04 11:58:28;;;;;;;;;;;11.80;93.90;;;;;;5031723;28;19972;-75
2022/11/04 12:00:59;;;;;;;;;;;11.90;94.00;;;;;;5034674;28;19999;-76
2022/11/04 12:03:31;;;;;;;;;;;12.00;93.60;;;;;;5027711;28;20003;-75
2022/11/04 12:06:05;;;;;;;;;;;12.00;93.70;;;;;;5037804;28;19977;-77
2022/11/04 12:08:39;;;;;;;;;;;12.10;93.50;;;;;;5035817;28;20459;-75
2022/11/04 12:11:10;;;;;;;;;;;12.10;93.40;;;;;;5035579;28;19980;-77
2022/11/04 12:13:39;;;;;;;;;;;12.20;93.40;;;;;;5032933;28;19992;-76
2022/11/04 12:16:18;;;;;;;;;;;12.30;93.40;;;;;;5035603;28;20727;-74
2022/11/04 12:18:56;;;;;;;;;;;12.30;93.40;;;;;;5042654;28;20270;-76
2022/11/04 12:21:25;;;;;;;;;;;12.40;93.40;;;;;;5033239;28;19987;-76
2022/11/04 12:23:55;;;;;;;;;;;12.40;93.40;;;;;;5037367;28;20601;-76
2022/11/04 12:26:30;;;;;;;;;;;12.50;93.40;;;;;;5039411;28;19980;-76
2022/11/04 12:29:06;;;;;;;;;;;12.50;93.30;;;;;;5036445;28;19990;-77
2022/11/04 12:31:37;;;;;;;;;;;12.50;93.40;;;;;;5033987;28;20201;-76
2022/11/04 12:34:09;;;;;;;;;;;12.50;93.40;;;;;;5036284;28;19998;-76
2022/11/04 12:36:43;;;;;;;;;;;12.50;93.40;;;;;;5039480;28;19979;-77
2022/11/04 12:39:27;;;;;;;;;;;12.50;93.50;;;;;;5036688;28;20480;-76
2022/11/04 12:42:00;;;;;;;;;;;12.50;93.40;;;;;;5036207;28;19991;-76
2022/11/04 12:44:31;;;;;;;;;;;12.50;93.50;;;;;;5037194;28;20019;-76
2022/11/04 12:47:02;;;;;;;;;;;12.50;93.50;;;;;;5037820;28;19995;-76
2022/11/04 12:49:52;;;;;;;;;;;12.40;93.50;;;;;;5034077;28;19980;-77
2022/11/04 12:52:26;;;;;;;;;;;12.50;93.60;;;;;;5036921;28;20459;-76
2022/11/04 12:54:58;;;;;;;;;;;12.40;93.60;;;;;;5034515;28;20002;-77
2022/11/04 12:57:32;;;;;;;;;;;12.40;93.60;;;;;;5034122;28;20477;-76
2022/11/04 13:00:08;;;;;;;;;;;12.40;93.70;;;;;;5037167;28;20002;-76
2022/11/04 13:02:38;;;;;;;;;;;12.40;93.50;;;;;;5036789;28;19991;-76
2022/11/04 13:05:07;;;;;;;;;;;12.40;93.60;;;;;;5038125;28;20010;-75
2022/11/04 13:07:37;;;;;;;;;;;12.50;93.50;;;;;;5037173;28;19983;-77
2022/11/04 13:10:05;;;;;;;;;;;12.50;93.30;;;;;;5037160;28;19986;-74
2022/11/04 13:12:35;;;;;;;;;;;12.50;93.30;;;;;;5040342;28;19972;-76
2022/11/04 13:15:04;;;;;;;;;;;12.50;93.40;;;;;;5032946;28;19999;-77
2022/11/04 13:17:34;;;;;;;;;;;12.60;93.40;;;;;;5039455;28;20497;-76
2022/11/04 13:20:03;;;;;;;;;;;12.60;93.50;;;;;;5034391;28;20009;-76
2022/11/04 13:22:31;;;;;;;;;;;12.60;93.40;;;;;;5038146;28;19978;-76
2022/11/04 13:25:02;;;;;;;;;;;12.60;93.40;;;;;;5040625;28;20000;-76
2022/11/04 13:27:32;;;;;;;;;;;12.70;93.40;;;;;;5033029;28;19976;-76
2022/11/04 13:30:04;;;;;;;;;;;12.60;93.40;;;;;;5036467;28;19983;-76
2022/11/04 13:32:33;;;;;;;;;;;12.60;93.50;;;;;;5039230;28;20035;-76
2022/11/04 13:35:04;;;;;;;;;;;12.60;93.50;;;;;;5036918;28;19995;-77
2022/11/04 13:37:33;;;;;;;;;;;12.60;93.50;;;;;;5035177;28;19979;-76
2022/11/04 13:40:02;;;;;;;;;;;12.60;93.60;;;;;;5037181;28;19983;-76
2022/11/04 13:42:48;;;;;;;;;;;12.60;93.80;;;;;;5036556;28;19976;-76
2022/11/04 13:45:18;;;;;;;;;;;12.60;93.80;;;;;;5035047;28;19987;-76
2022/11/04 13:47:47;;;;;;;;;;;12.60;93.80;;;;;;5040296;28;19979;-77
2022/11/04 13:50:32;;;;;;;;;;;12.60;93.90;;;;;;5035375;28;19976;-77
2022/11/04 13:52:59;;;;;;;;;;;12.60;93.90;;;;;;5035738;28;19976;-77
2022/11/04 13:55:26;;;;;;;;;;;12.50;93.90;;;;;;5036885;28;19976;-77
2022/11/04 13:57:54;;;;;;;;;;;12.50;93.90;;;;;;5039939;28;19986;-77
2022/11/04 14:00:24;;;;;;;;;;;12.60;93.90;;;;;;5034098;28;20085;-78
2022/11/04 14:02:51;;;;;;;;;;;12.50;93.90;;;;;;5041104;28;19983;-77
2022/11/04 14:05:38;;;;;;;;;;;12.60;94.00;;;;;;5041106;28;19984;-77
2022/11/04 14:08:09;;;;;;;;;;;12.60;94.00;;;;;;5038554;28;19987;-76
2022/11/04 14:10:46;;;;;;;;;;;12.60;93.90;;;;;;5035826;28;20398;-77
2022/11/04 14:13:36;;;;;;;;;;;12.50;94.00;;;;;;5037492;28;20183;-77
2022/11/04 14:16:05;;;;;;;;;;;12.50;94.00;;;;;;5031817;28;20704;-76
2022/11/04 14:18:33;;;;;;;;;;;12.50;94.00;;;;;;5032215;28;19983;-75
2022/11/04 14:21:05;;;;;;;;;;;12.50;94.00;;;;;;5038092;28;19925;-76
2022/11/04 14:23:32;;;;;;;;;;;12.50;94.00;;;;;;5034888;28;20354;-76
2022/11/04 14:26:00;;;;;;;;;;;12.50;94.00;;;;;;5032363;28;19968;-76
2022/11/04 14:28:28;;;;;;;;;;;12.50;94.00;;;;;;5033196;28;19941;-75
2022/11/04 14:30:55;;;;;;;;;;;12.50;94.40;;;;;;5032000;28;19929;-76
2022/11/04 14:33:34;;;;;;;;;;;12.50;94.10;;;;;;5033762;28;19929;-73
2022/11/04 14:36:22;;;;;;;;;;;12.50;94.20;;;;;;5045116;28;19929;-74
2022/11/04 14:38:53;;;;;;;;;;;12.50;94.20;;;;;;5043702;28;19929;-75
2022/11/04 14:41:22;;;;;;;;;;;12.50;94.20;;;;;;5042513;28;19929;-75
2022/11/04 14:43:49;;;;;;;;;;;12.50;94.20;;;;;;5038255;28;20605;-74
2022/11/04 14:46:19;;;;;;;;;;;12.50;94.30;;;;;;5037121;28;19928;-76
2022/11/04 14:48:51;;;;;;;;;;;12.50;94.30;;;;;;5035399;28;19940;-74
2022/11/04 14:51:23;;;;;;;;;;;12.50;94.30;;;;;;5043359;28;19928;-76
2022/11/04 14:53:50;;;;;;;;;;;12.50;94.30;;;;;;5042727;28;20211;-76
2022/11/04 14:56:20;;;;;;;;;;;12.50;94.30;;;;;;5043038;28;19936;-74